createdAt,value
2018-06-11T00:00:18.577Z,83.11
2018-06-11T00:02:47.800Z,82.37
2018-06-11T00:05:16.977Z,82.24
2018-06-11T00:07:46.121Z,82.79
2018-06-11T00:10:15.247Z,82.53
2018-06-11T00:12:44.402Z,83.00
2018-06-11T00:15:13.520Z,82.90
2018-06-11T00:17:42.664Z,83.09
2018-06-11T00:20:11.776Z,83.44
2018-06-11T00:22:40.857Z,83.03
2018-06-11T00:25:10.001Z,82.99
2018-06-11T00:27:39.151Z,83.00
2018-06-11T00:30:08.317Z,82.95
2018-06-11T00:32:37.546Z,82.64
2018-06-11T00:35:06.628Z,82.87
2018-06-11T00:37:35.774Z,82.53
2018-06-11T00:40:04.891Z,83.02
2018-06-11T00:42:33.982Z,82.92
2018-06-11T00:45:03.149Z,82.77
2018-06-11T00:47:32.248Z,83.04
2018-06-11T00:50:01.431Z,82.71
2018-06-11T00:52:30.548Z,83.03
2018-06-11T00:54:59.683Z,82.99
2018-06-11T00:57:28.779Z,83.15
2018-06-11T00:59:58.467Z,82.63
2018-06-11T01:02:27.563Z,82.57
2018-06-11T01:04:56.764Z,82.79
2018-06-11T01:07:25.873Z,83.69
2018-06-11T01:09:55.650Z,83.66
2018-06-11T01:12:24.749Z,83.13
2018-06-11T01:14:53.933Z,83.09
2018-06-11T01:17:23.006Z,83.35
2018-06-11T01:19:52.867Z,82.98
2018-06-11T01:22:22.075Z,82.81
2018-06-11T01:24:51.166Z,83.41
2018-06-11T01:27:21.132Z,84.07
2018-06-11T01:29:50.256Z,84.44
2018-06-11T01:32:19.646Z,84.18
2018-06-11T01:34:48.822Z,84.36
2018-06-11T01:37:17.980Z,84.57
2018-06-11T01:39:47.119Z,84.83
2018-06-11T01:42:16.316Z,84.40
2018-06-11T01:44:45.554Z,84.15
2018-06-11T01:47:14.711Z,84.06
2018-06-11T01:49:43.883Z,84.87
2018-06-11T01:52:13.075Z,85.01
2018-06-11T01:54:42.235Z,85.46
2018-06-11T01:57:12.032Z,85.12
2018-06-11T01:59:41.181Z,85.49
2018-06-11T02:02:11.295Z,85.76
2018-06-11T02:04:40.426Z,85.83
2018-06-11T02:07:09.554Z,84.39
2018-06-11T02:09:38.703Z,85.18
2018-06-11T02:12:07.846Z,85.95
2018-06-11T02:14:36.963Z,85.81
2018-06-11T02:17:06.108Z,85.53
2018-06-11T02:19:35.230Z,86.19
2018-06-11T02:22:04.820Z,85.89
2018-06-11T02:24:33.984Z,86.20
2018-06-11T02:27:03.132Z,86.15
2018-06-11T02:29:32.228Z,87.05
2018-06-11T02:32:01.372Z,86.84
2018-06-11T02:34:30.515Z,87.21
2018-06-11T02:36:59.605Z,87.25
2018-06-11T02:39:28.791Z,87.24
2018-06-11T02:41:57.912Z,87.29
2018-06-11T02:44:28.184Z,87.73
2018-06-11T02:47:14.230Z,87.48
2018-06-11T02:49:46.397Z,88.16
2018-06-11T02:52:15.552Z,88.00
2018-06-11T02:54:44.696Z,88.22
2018-06-11T02:57:13.772Z,88.21
2018-06-11T02:59:42.909Z,88.17
2018-06-11T03:02:12.060Z,87.96
2018-06-11T03:04:41.169Z,88.21
2018-06-11T03:07:10.288Z,88.71
2018-06-11T03:09:39.435Z,87.86
2018-06-11T03:12:08.548Z,88.20
2018-06-11T03:14:37.623Z,88.47
2018-06-11T03:17:06.820Z,87.94
2018-06-11T03:19:35.908Z,87.99
2018-06-11T03:22:11.496Z,88.20
2018-06-11T03:24:40.653Z,88.15
2018-06-11T03:27:09.875Z,87.77
2018-06-11T03:29:38.947Z,88.42
2018-06-11T03:32:08.077Z,88.11
2018-06-11T03:34:37.181Z,88.33
2018-06-11T03:37:06.339Z,88.62
2018-06-11T03:39:35.453Z,88.45
2018-06-11T03:42:22.133Z,88.40
2018-06-11T03:44:55.051Z,88.65
2018-06-11T03:47:24.337Z,88.76
2018-06-11T03:49:53.559Z,88.85
2018-06-11T03:52:22.834Z,88.73
2018-06-11T03:54:51.961Z,88.52
2018-06-11T03:57:21.129Z,88.20
2018-06-11T03:59:50.346Z,88.22
2018-06-11T04:02:19.761Z,88.19
2018-06-11T04:04:48.918Z,88.04
2018-06-11T04:07:18.045Z,88.72
2018-06-11T04:09:47.212Z,88.00
2018-06-11T04:12:16.298Z,88.36
2018-06-11T04:14:45.406Z,87.93
2018-06-11T04:17:14.597Z,88.14
2018-06-11T04:19:43.785Z,88.04
2018-06-11T04:22:12.940Z,88.37
2018-06-11T04:24:42.101Z,87.88
2018-06-11T04:27:11.277Z,88.09
2018-06-11T04:29:40.400Z,87.91
2018-06-11T04:32:09.573Z,87.08
2018-06-11T04:34:38.682Z,86.63
2018-06-11T04:37:07.872Z,86.77
2018-06-11T04:39:37.175Z,86.63
2018-06-11T04:42:06.386Z,87.12
2018-06-11T04:44:35.767Z,86.46
2018-06-11T04:47:05.098Z,86.47
2018-06-11T04:49:34.261Z,86.11
2018-06-11T04:52:03.414Z,86.12
2018-06-11T04:54:32.582Z,86.12
2018-06-11T04:57:01.792Z,85.37
2018-06-11T04:59:31.055Z,85.08
2018-06-11T05:02:00.348Z,85.17
2018-06-11T05:04:29.523Z,85.21
2018-06-11T05:06:58.691Z,84.95
2018-06-11T05:09:27.908Z,84.48
2018-06-11T05:11:57.040Z,85.15
2018-06-11T05:14:26.198Z,84.87
2018-06-11T05:16:56.183Z,84.83
2018-06-11T05:19:25.576Z,84.77
2018-06-11T05:21:54.888Z,84.35
2018-06-11T05:24:24.412Z,84.75
2018-06-11T05:26:53.594Z,85.90
2018-06-11T05:29:22.933Z,84.67
2018-06-11T05:31:52.150Z,84.24
2018-06-11T05:34:21.558Z,83.33
2018-06-11T05:36:51.717Z,83.09
2018-06-11T05:39:20.911Z,83.39
2018-06-11T05:41:50.118Z,82.66
2018-06-11T05:44:19.238Z,81.59
2018-06-11T05:46:48.375Z,82.25
2018-06-11T05:49:17.565Z,81.28
2018-06-11T05:51:46.701Z,80.77
2018-06-11T05:54:15.918Z,80.62
2018-06-11T05:56:45.089Z,80.21
2018-06-11T05:59:14.260Z,79.93
2018-06-11T06:01:43.405Z,80.21
2018-06-11T06:04:12.541Z,79.85
2018-06-11T06:06:41.940Z,79.86
2018-06-11T06:09:11.090Z,80.37
2018-06-11T06:11:40.232Z,79.75
2018-06-11T06:14:09.495Z,79.43
2018-06-11T06:16:38.635Z,79.62
2018-06-11T06:19:07.831Z,79.29
2018-06-11T06:21:37.098Z,79.22
2018-06-11T06:24:06.431Z,78.99
2018-06-11T06:26:35.624Z,79.00
2018-06-11T06:29:05.076Z,79.22
2018-06-11T06:31:34.244Z,78.58
2018-06-11T06:34:03.452Z,78.68
2018-06-11T06:36:32.591Z,78.39
2018-06-11T06:39:01.736Z,78.67
2018-06-11T06:41:30.913Z,78.18
2018-06-11T06:44:00.030Z,77.77
2018-06-11T06:46:29.211Z,77.69
2018-06-11T06:48:58.468Z,76.65
2018-06-11T06:51:27.632Z,77.12
2018-06-11T06:53:56.798Z,77.15
2018-06-11T06:56:26.001Z,76.89
2018-06-11T06:58:55.111Z,77.05
2018-06-11T07:01:24.269Z,76.60
2018-06-11T07:03:53.378Z,76.07
2018-06-11T07:06:22.685Z,76.15
2018-06-11T07:08:51.839Z,76.30
2018-06-11T07:11:20.976Z,75.83
2018-06-11T07:13:50.209Z,76.02
2018-06-11T07:16:19.525Z,76.14
2018-06-11T07:18:48.703Z,75.36
2018-06-11T07:21:17.863Z,75.92
2018-06-11T07:23:46.988Z,75.80
2018-06-11T07:26:16.161Z,75.54
2018-06-11T07:28:45.325Z,76.15
2018-06-11T07:31:14.450Z,76.20
2018-06-11T07:33:43.727Z,75.31
2018-06-11T07:36:12.911Z,75.51
2018-06-11T07:38:42.038Z,75.33
2018-06-11T07:41:11.234Z,74.57
2018-06-11T07:43:40.344Z,74.48
2018-06-11T07:46:09.529Z,74.64
2018-06-11T07:48:38.762Z,74.27
2018-06-11T07:51:07.933Z,74.08
2018-06-11T07:53:37.125Z,74.64
2018-06-11T07:56:06.308Z,74.71
2018-06-11T07:58:35.513Z,73.55
2018-06-11T08:01:04.717Z,72.88
2018-06-11T08:03:33.894Z,71.85
2018-06-11T08:06:03.055Z,72.84
2018-06-11T08:08:32.208Z,72.76
2018-06-11T08:11:01.369Z,71.78
2018-06-11T08:13:30.627Z,70.02
2018-06-11T08:15:59.764Z,69.15
2018-06-11T08:18:28.876Z,69.25
2018-06-11T08:20:58.129Z,69.08
2018-06-11T08:23:27.260Z,68.96
2018-06-11T08:25:56.445Z,69.35
2018-06-11T08:28:25.585Z,69.17
2018-06-11T08:30:54.793Z,68.03
2018-06-11T08:33:24.168Z,67.08
2018-06-11T08:35:53.318Z,66.51
2018-06-11T08:38:22.695Z,65.86
2018-06-11T08:40:51.982Z,65.75
2018-06-11T08:43:21.124Z,65.84
2018-06-11T08:45:50.412Z,66.30
2018-06-11T08:48:19.614Z,64.80
2018-06-11T08:50:48.852Z,65.55
2018-06-11T08:53:18.498Z,65.62
2018-06-11T08:55:47.738Z,65.77
2018-06-11T08:58:17.877Z,65.42
2018-06-11T09:00:47.108Z,65.28
2018-06-11T09:03:16.318Z,65.78
2018-06-11T09:05:45.573Z,65.11
2018-06-11T09:08:14.674Z,64.05
2018-06-11T09:10:43.798Z,63.88
2018-06-11T09:13:13.088Z,64.32
2018-06-11T09:15:42.425Z,63.33
2018-06-11T09:18:11.653Z,63.52
2018-06-11T09:20:40.726Z,62.88
2018-06-11T09:23:09.909Z,63.21
2018-06-11T09:25:39.136Z,63.36
2018-06-11T09:28:08.339Z,61.72
2018-06-11T09:30:37.529Z,59.54
2018-06-11T09:33:06.705Z,59.62
2018-06-11T09:35:35.876Z,60.06
2018-06-11T09:38:04.990Z,60.06
2018-06-11T09:40:34.184Z,59.90
2018-06-11T09:43:03.517Z,59.19
2018-06-11T09:45:32.709Z,60.80
2018-06-11T09:48:01.911Z,60.65
2018-06-11T09:50:31.153Z,61.31
2018-06-11T09:53:00.306Z,60.53
2018-06-11T09:55:29.470Z,60.28
2018-06-11T09:57:58.645Z,61.60
2018-06-11T10:00:32.808Z,61.62
2018-06-11T10:03:01.968Z,60.79
2018-06-11T10:05:31.240Z,60.83
2018-06-11T10:08:00.587Z,60.00
2018-06-11T10:10:29.797Z,59.33
2018-06-11T10:12:58.981Z,59.47
2018-06-11T10:15:28.179Z,59.81
2018-06-11T10:17:57.453Z,58.36
2018-06-11T10:20:26.635Z,58.46
2018-06-11T10:22:55.796Z,58.39
2018-06-11T10:25:25.067Z,59.99
2018-06-11T10:27:54.197Z,60.82
2018-06-11T10:30:23.489Z,60.06
2018-06-11T10:32:52.701Z,59.27
2018-06-11T10:35:21.830Z,58.63
2018-06-11T10:37:51.073Z,58.67
2018-06-11T10:40:20.305Z,58.98
2018-06-11T10:42:49.446Z,59.33
2018-06-11T10:45:18.602Z,59.72
2018-06-11T10:47:47.703Z,59.09
2018-06-11T10:50:16.914Z,57.72
2018-06-11T10:52:46.082Z,57.14
2018-06-11T10:55:15.278Z,56.51
2018-06-11T10:57:44.480Z,56.02
2018-06-11T11:00:13.682Z,56.44
2018-06-11T11:02:42.866Z,56.13
2018-06-11T11:05:12.104Z,57.20
2018-06-11T11:07:41.396Z,56.30
2018-06-11T11:10:10.560Z,56.35
2018-06-11T11:12:39.819Z,55.68
2018-06-11T11:15:08.968Z,54.85
2018-06-11T11:17:38.161Z,54.90
2018-06-11T11:20:07.380Z,55.05
2018-06-11T11:22:36.500Z,54.43
2018-06-11T11:25:05.677Z,53.84
2018-06-11T11:27:34.806Z,54.31
2018-06-11T11:30:04.046Z,53.24
2018-06-11T11:32:33.161Z,53.58
2018-06-11T11:35:02.332Z,53.34
2018-06-11T11:37:31.488Z,53.15
2018-06-11T11:40:00.687Z,53.67
2018-06-11T11:42:29.935Z,52.95
2018-06-11T11:44:59.063Z,51.56
2018-06-11T11:47:28.347Z,51.84
2018-06-11T11:49:57.460Z,51.14
2018-06-11T11:52:26.828Z,50.74
2018-06-11T11:54:55.949Z,49.70
2018-06-11T11:57:25.187Z,47.28
2018-06-11T11:59:54.388Z,46.69
2018-06-11T12:02:23.585Z,46.10
2018-06-11T12:04:52.785Z,44.37
2018-06-11T12:07:21.987Z,45.23
2018-06-11T12:09:51.172Z,43.24
2018-06-11T12:12:20.300Z,43.28
2018-06-11T12:14:49.438Z,42.99
2018-06-11T12:17:21.593Z,43.40
2018-06-11T12:19:50.792Z,42.75
2018-06-11T12:22:19.985Z,42.51
2018-06-11T12:24:49.216Z,40.58
2018-06-11T12:27:18.456Z,39.80
2018-06-11T12:29:47.609Z,39.80
2018-06-11T12:32:16.851Z,40.01
2018-06-11T12:34:46.145Z,39.25
2018-06-11T12:37:15.304Z,39.12
2018-06-11T12:39:44.526Z,39.69
2018-06-11T12:42:13.713Z,40.54
2018-06-11T12:44:42.905Z,41.34
2018-06-11T12:47:12.060Z,40.25
2018-06-11T12:49:41.300Z,40.17
2018-06-11T12:52:10.476Z,39.16
2018-06-11T12:54:39.607Z,38.64
2018-06-11T12:57:08.840Z,38.25
2018-06-11T12:59:37.961Z,37.21
2018-06-11T13:02:07.208Z,36.45
2018-06-11T13:04:36.523Z,36.49
2018-06-11T13:07:05.678Z,35.79
2018-06-11T13:09:35.848Z,37.03
2018-06-11T13:12:05.076Z,36.45
2018-06-11T13:14:34.355Z,36.46
2018-06-11T13:17:03.620Z,36.24
2018-06-11T13:19:32.815Z,36.41
2018-06-11T13:22:02.042Z,36.35
2018-06-11T13:24:37.874Z,37.03
2018-06-11T13:27:07.059Z,35.67
2018-06-11T13:29:36.397Z,36.23
2018-06-11T13:32:05.577Z,35.17
2018-06-11T13:34:34.751Z,34.81
2018-06-11T13:37:03.985Z,35.34
2018-06-11T13:39:33.270Z,34.90
2018-06-11T13:42:02.526Z,36.33
2018-06-11T13:44:31.697Z,36.40
2018-06-11T13:47:00.813Z,35.93
2018-06-11T13:49:29.994Z,37.70
2018-06-11T13:51:59.116Z,35.73
2018-06-11T13:54:28.384Z,35.61
2018-06-11T13:56:57.576Z,36.08
2018-06-11T13:59:26.745Z,36.72
2018-06-11T14:01:55.833Z,37.18
2018-06-11T14:04:25.043Z,36.90
2018-06-11T14:06:54.192Z,36.14
2018-06-11T14:09:23.359Z,35.94
2018-06-11T14:11:52.561Z,36.24
2018-06-11T14:14:21.714Z,36.84
2018-06-11T14:16:50.849Z,36.60
2018-06-11T14:19:20.084Z,37.51
2018-06-11T14:21:49.256Z,36.37
2018-06-11T14:24:18.386Z,36.79
2018-06-11T14:26:47.556Z,36.82
2018-06-11T14:29:16.755Z,36.65
2018-06-11T14:31:45.879Z,35.93
2018-06-11T14:34:15.038Z,35.52
2018-06-11T14:36:44.179Z,34.66
2018-06-11T14:39:13.400Z,35.93
2018-06-11T14:41:42.597Z,36.31
2018-06-11T14:44:11.741Z,36.03
2018-06-11T14:46:40.982Z,36.53
2018-06-11T14:49:10.146Z,36.74
2018-06-11T14:51:39.296Z,36.48
2018-06-11T14:54:08.405Z,36.86
2018-06-11T14:56:37.605Z,37.19
2018-06-11T14:59:06.797Z,37.57
2018-06-11T15:01:35.876Z,37.17
2018-06-11T15:04:05.080Z,37.86
2018-06-11T15:06:34.268Z,36.60
2018-06-11T15:09:03.547Z,37.50
2018-06-11T15:11:32.667Z,37.10
2018-06-11T15:14:01.821Z,36.88
2018-06-11T15:16:31.086Z,37.79
2018-06-11T15:19:00.436Z,37.32
2018-06-11T15:21:29.598Z,37.19
2018-06-11T15:23:58.764Z,37.51
2018-06-11T15:26:27.928Z,38.38
2018-06-11T15:28:57.018Z,39.49
2018-06-11T15:31:26.165Z,39.03
2018-06-11T15:33:55.314Z,39.41
2018-06-11T15:36:24.412Z,39.80
2018-06-11T15:38:53.482Z,39.40
2018-06-11T15:41:22.622Z,38.94
2018-06-11T15:43:51.759Z,40.31
2018-06-11T15:46:20.848Z,39.34
2018-06-11T15:48:49.965Z,39.14
2018-06-11T15:51:19.106Z,38.95
2018-06-11T15:53:48.290Z,40.30
2018-06-11T15:56:17.530Z,40.51
2018-06-11T15:58:46.712Z,41.26
2018-06-11T16:01:15.864Z,42.29
2018-06-11T16:03:45.189Z,42.26
2018-06-11T16:06:14.612Z,42.31
2018-06-11T16:08:43.757Z,41.05
2018-06-11T16:11:12.982Z,41.46
2018-06-11T16:13:42.146Z,41.22
2018-06-11T16:16:11.279Z,41.93
2018-06-11T16:18:40.393Z,43.35
2018-06-11T16:21:09.531Z,42.27
2018-06-11T16:23:38.791Z,42.82
2018-06-11T16:26:07.956Z,42.11
2018-06-11T16:28:37.152Z,42.66
2018-06-11T16:31:06.366Z,43.76
2018-06-11T16:33:35.571Z,43.33
2018-06-11T16:36:04.844Z,42.86
2018-06-11T16:38:34.042Z,42.77
2018-06-11T16:41:03.290Z,42.84
2018-06-11T16:43:32.423Z,42.67
2018-06-11T16:46:01.585Z,43.26
2018-06-11T16:48:30.660Z,43.09
2018-06-11T16:50:59.868Z,42.88
2018-06-11T16:53:29.000Z,43.03
2018-06-11T16:55:58.139Z,44.03
2018-06-11T16:58:27.316Z,43.83
2018-06-11T17:00:56.583Z,43.55
2018-06-11T17:03:25.717Z,43.56
2018-06-11T17:05:54.856Z,44.04
2018-06-11T17:08:24.054Z,43.97
2018-06-11T17:10:53.254Z,43.58
2018-06-11T17:13:22.390Z,44.31
2018-06-11T17:15:51.747Z,44.29
2018-06-11T17:18:20.864Z,44.35
2018-06-11T17:20:50.010Z,44.83
2018-06-11T17:23:19.200Z,45.27
2018-06-11T17:25:48.362Z,45.52
2018-06-11T17:28:17.499Z,45.67
2018-06-11T17:30:46.622Z,45.09
2018-06-11T17:33:15.820Z,45.95
2018-06-11T17:35:45.203Z,45.60
2018-06-11T17:38:17.492Z,45.66
2018-06-11T17:40:46.688Z,46.79
2018-06-11T17:43:15.847Z,45.94
2018-06-11T17:45:45.004Z,46.83
2018-06-11T17:48:14.180Z,47.06
2018-06-11T17:50:43.306Z,46.88
2018-06-11T17:53:12.479Z,47.28
2018-06-11T17:55:41.653Z,47.46
2018-06-11T17:58:10.803Z,48.86
2018-06-11T18:00:40.097Z,47.19
2018-06-11T18:03:09.371Z,47.15
2018-06-11T18:05:38.649Z,47.25
2018-06-11T18:08:07.901Z,48.20
2018-06-11T18:10:37.116Z,47.78
2018-06-11T18:13:06.341Z,47.40
2018-06-11T18:15:35.478Z,47.97
2018-06-11T18:18:04.732Z,48.79
2018-06-11T18:20:33.873Z,48.92
2018-06-11T18:23:03.059Z,49.17
2018-06-11T18:25:32.210Z,49.24
2018-06-11T18:28:01.482Z,49.89
2018-06-11T18:30:30.646Z,49.70
2018-06-11T18:32:59.899Z,50.14
2018-06-11T18:35:29.145Z,49.42
2018-06-11T18:37:58.309Z,49.82
2018-06-11T18:40:27.474Z,50.61
2018-06-11T18:42:56.758Z,50.38
2018-06-11T18:45:25.920Z,50.26
2018-06-11T18:47:55.083Z,50.15
2018-06-11T18:50:24.287Z,49.98
2018-06-11T18:52:53.425Z,50.37
2018-06-11T18:55:22.545Z,50.29
2018-06-11T18:57:51.719Z,50.57
2018-06-11T19:00:20.957Z,51.13
2018-06-11T19:02:50.112Z,50.67
2018-06-11T19:05:19.232Z,51.41
2018-06-11T19:07:48.452Z,51.69
2018-06-11T19:10:17.739Z,50.89
2018-06-11T19:12:46.890Z,51.14
2018-06-11T19:15:16.129Z,51.09
2018-06-11T19:17:45.576Z,51.66
2018-06-11T19:20:14.754Z,50.67
2018-06-11T19:22:43.941Z,52.16
2018-06-11T19:25:13.267Z,51.88
2018-06-11T19:27:42.575Z,51.56
2018-06-11T19:30:11.724Z,50.05
2018-06-11T19:32:40.891Z,51.02
2018-06-11T19:35:10.073Z,50.15
2018-06-11T19:37:39.255Z,49.71
2018-06-11T19:40:08.446Z,50.03
2018-06-11T19:42:37.647Z,50.91
2018-06-11T19:45:06.925Z,50.43
2018-06-11T19:47:36.251Z,50.51
2018-06-11T19:50:05.568Z,50.26
2018-06-11T19:52:34.650Z,49.69
2018-06-11T19:55:03.975Z,50.15
2018-06-11T19:57:33.505Z,50.67
2018-06-11T20:00:02.643Z,51.29
2018-06-11T20:02:31.800Z,51.31
2018-06-11T20:05:01.036Z,51.79
2018-06-11T20:07:30.274Z,51.82
2018-06-11T20:09:59.394Z,52.11
2018-06-11T20:12:28.581Z,51.43
2018-06-11T20:14:57.872Z,51.33
2018-06-11T20:17:27.037Z,51.84
2018-06-11T20:19:56.236Z,52.37
2018-06-11T20:22:25.414Z,52.41
2018-06-11T20:24:54.559Z,52.28
2018-06-11T20:27:23.776Z,52.97
2018-06-11T20:29:53.019Z,52.03
2018-06-11T20:32:22.296Z,52.88
2018-06-11T20:34:51.386Z,52.34
2018-06-11T20:37:20.831Z,52.59
2018-06-11T20:39:49.951Z,53.12
2018-06-11T20:42:19.935Z,52.06
2018-06-11T20:44:49.113Z,52.16
2018-06-11T20:47:18.435Z,52.12
2018-06-11T20:49:47.609Z,52.55
2018-06-11T20:52:16.826Z,54.03
2018-06-11T20:54:46.052Z,53.39
2018-06-11T20:57:15.398Z,52.97
2018-06-11T20:59:44.749Z,53.35
2018-06-11T21:02:13.974Z,53.71
2018-06-11T21:04:43.304Z,53.46
2018-06-11T21:07:12.701Z,53.54
2018-06-11T21:09:43.301Z,54.06
2018-06-11T21:12:12.427Z,54.10
2018-06-11T21:14:41.660Z,54.32
2018-06-11T21:17:10.808Z,54.36
2018-06-11T21:19:40.012Z,54.63
2018-06-11T21:22:09.234Z,54.61
2018-06-11T21:24:38.430Z,55.25
2018-06-11T21:27:07.603Z,55.11
2018-06-11T21:29:36.797Z,54.82
2018-06-11T21:32:06.006Z,54.68
2018-06-11T21:34:35.163Z,55.46
2018-06-11T21:37:04.361Z,55.28
2018-06-11T21:39:33.496Z,56.21
2018-06-11T21:42:02.906Z,55.38
2018-06-11T21:44:32.110Z,56.14
2018-06-11T21:47:01.383Z,56.15
2018-06-11T21:49:30.554Z,56.72
2018-06-11T21:51:59.758Z,56.59
2018-06-11T21:54:29.017Z,56.88
2018-06-11T21:56:58.938Z,56.54
2018-06-11T21:59:28.082Z,56.93
2018-06-11T22:01:57.329Z,56.48
2018-06-11T22:04:26.496Z,57.40
2018-06-11T22:06:55.718Z,56.95
2018-06-11T22:09:24.891Z,57.47
2018-06-11T22:11:54.095Z,58.20
2018-06-11T22:14:23.312Z,58.48
2018-06-11T22:16:52.469Z,57.52
2018-06-11T22:19:21.626Z,57.57
2018-06-11T22:21:50.812Z,58.14
2018-06-11T22:24:19.932Z,58.69
2018-06-11T22:26:49.113Z,58.95
2018-06-11T22:29:18.306Z,59.08
2018-06-11T22:31:47.650Z,59.37
2018-06-11T22:34:16.802Z,59.10
2018-06-11T22:36:45.977Z,59.57
2018-06-11T22:39:15.292Z,60.21
2018-06-11T22:41:44.393Z,60.23
2018-06-11T22:44:13.627Z,60.05
2018-06-11T22:46:42.715Z,60.12
2018-06-11T22:49:12.226Z,60.57
2018-06-11T22:51:41.356Z,60.53
2018-06-11T22:54:10.531Z,60.95
2018-06-11T22:56:39.682Z,61.23
2018-06-11T22:59:08.822Z,61.20
2018-06-11T23:01:38.017Z,61.70
2018-06-11T23:04:07.324Z,61.79
2018-06-11T23:06:36.510Z,61.96
2018-06-11T23:09:07.810Z,61.80
2018-06-11T23:11:37.003Z,62.43
2018-06-11T23:14:06.293Z,62.51
2018-06-11T23:16:35.549Z,62.76
2018-06-11T23:19:04.724Z,62.40
2018-06-11T23:21:33.933Z,62.97
2018-06-11T23:24:03.236Z,64.09
2018-06-11T23:26:32.389Z,63.81
2018-06-11T23:29:01.630Z,64.88
2018-06-11T23:31:30.821Z,64.68
2018-06-11T23:34:00.059Z,65.44
2018-06-11T23:36:29.373Z,65.73
2018-06-11T23:38:59.157Z,66.14
2018-06-11T23:41:44.797Z,66.20
2018-06-11T23:47:32.975Z,67.05
2018-06-11T23:50:07.813Z,67.15
2018-06-11T23:52:37.111Z,67.43
2018-06-11T23:55:06.408Z,67.77
2018-06-11T23:57:35.613Z,67.85
